sensor_id;sensor_type;location;lat;lon;timestamp;P1;durP1;ratioP1;P2;durP2;ratioP2
58242;SDS011;50118;53.232;8.252;2023-08-21T00:01:21;5.30;;;4.00;;
58242;SDS011;50118;53.232;8.252;2023-08-21T00:03:46;6.57;;;3.60;;
58242;SDS011;50118;53.232;8.252;2023-08-21T00:06:12;6.13;;;3.67;;
58242;SDS011;50118;53.232;8.252;2023-08-21T00:08:37;8.57;;;4.20;;
58242;SDS011;50118;53.232;8.252;2023-08-21T00:11:03;7.60;;;4.03;;
58242;SDS011;50118;53.232;8.252;2023-08-21T00:13:28;8.13;;;4.05;;
58242;SDS011;50118;53.232;8.252;2023-08-21T00:15:54;5.30;;;3.53;;
58242;SDS011;50118;53.232;8.252;2023-08-21T00:18:20;6.07;;;3.58;;
58242;SDS011;50118;53.232;8.252;2023-08-21T00:20:46;7.13;;;3.88;;
58242;SDS011;50118;53.232;8.252;2023-08-21T00:23:11;7.88;;;3.63;;
58242;SDS011;50118;53.232;8.252;2023-08-21T00:25:36;7.00;;;4.15;;
58242;SDS011;50118;53.232;8.252;2023-08-21T00:28:02;6.68;;;3.65;;
58242;SDS011;50118;53.232;8.252;2023-08-21T00:30:28;6.30;;;3.72;;
58242;SDS011;50118;53.232;8.252;2023-08-21T00:32:53;5.28;;;3.38;;
58242;SDS011;50118;53.232;8.252;2023-08-21T00:35:19;6.20;;;3.83;;
58242;SDS011;50118;53.232;8.252;2023-08-21T00:37:44;6.75;;;3.92;;
58242;SDS011;50118;53.232;8.252;2023-08-21T00:40:10;10.70;;;4.18;;
58242;SDS011;50118;53.232;8.252;2023-08-21T00:42:36;5.85;;;4.45;;
58242;SDS011;50118;53.232;8.252;2023-08-21T00:45:01;6.70;;;4.22;;
58242;SDS011;50118;53.232;8.252;2023-08-21T00:47:28;6.32;;;4.00;;
58242;SDS011;50118;53.232;8.252;2023-08-21T00:49:54;8.60;;;3.70;;
58242;SDS011;50118;53.232;8.252;2023-08-21T00:52:20;6.88;;;4.00;;
58242;SDS011;50118;53.232;8.252;2023-08-21T00:54:46;7.45;;;4.30;;
58242;SDS011;50118;53.232;8.252;2023-08-21T00:57:11;6.85;;;4.03;;
58242;SDS011;50118;53.232;8.252;2023-08-21T00:59:38;6.70;;;4.32;;
58242;SDS011;50118;53.232;8.252;2023-08-21T01:02:03;5.57;;;4.15;;
58242;SDS011;50118;53.232;8.252;2023-08-21T01:04:29;6.65;;;4.03;;
58242;SDS011;50118;53.232;8.252;2023-08-21T01:06:54;7.30;;;4.00;;
58242;SDS011;50118;53.232;8.252;2023-08-21T01:09:26;7.07;;;4.22;;
58242;SDS011;50118;53.232;8.252;2023-08-21T01:14:25;7.93;;;4.00;;
58242;SDS011;50118;53.232;8.252;2023-08-21T01:16:59;5.97;;;3.78;;
58242;SDS011;50118;53.232;8.252;2023-08-21T01:22:01;5.88;;;3.50;;
58242;SDS011;50118;53.232;8.252;2023-08-21T01:24:26;7.93;;;4.30;;
58242;SDS011;50118;53.232;8.252;2023-08-21T01:26:52;7.53;;;4.47;;
58242;SDS011;50118;53.232;8.252;2023-08-21T01:29:17;7.40;;;4.32;;
58242;SDS011;50118;53.232;8.252;2023-08-21T01:31:44;7.35;;;4.50;;
58242;SDS011;50118;53.232;8.252;2023-08-21T01:34:15;7.30;;;4.40;;
58242;SDS011;50118;53.232;8.252;2023-08-21T01:36:41;9.60;;;5.78;;
58242;SDS011;50118;53.232;8.252;2023-08-21T01:39:08;12.68;;;6.03;;
58242;SDS011;50118;53.232;8.252;2023-08-21T01:41:34;8.95;;;5.13;;
58242;SDS011;50118;53.232;8.252;2023-08-21T01:43:59;9.48;;;5.43;;
58242;SDS011;50118;53.232;8.252;2023-08-21T01:46:24;7.47;;;4.53;;
58242;SDS011;50118;53.232;8.252;2023-08-21T01:48:50;6.50;;;4.40;;
58242;SDS011;50118;53.232;8.252;2023-08-21T01:51:15;9.07;;;5.05;;
58242;SDS011;50118;53.232;8.252;2023-08-21T01:53:41;8.43;;;5.15;;
58242;SDS011;50118;53.232;8.252;2023-08-21T01:56:06;7.47;;;5.38;;
58242;SDS011;50118;53.232;8.252;2023-08-21T01:58:31;7.43;;;4.80;;
58242;SDS011;50118;53.232;8.252;2023-08-21T02:00:57;9.85;;;6.20;;
58242;SDS011;50118;53.232;8.252;2023-08-21T02:03:24;8.15;;;5.00;;
58242;SDS011;50118;53.232;8.252;2023-08-21T02:05:50;9.45;;;5.13;;
58242;SDS011;50118;53.232;8.252;2023-08-21T02:08:16;8.27;;;5.25;;
58242;SDS011;50118;53.232;8.252;2023-08-21T02:10:51;9.93;;;5.25;;
58242;SDS011;50118;53.232;8.252;2023-08-21T02:13:18;8.73;;;4.60;;
58242;SDS011;50118;53.232;8.252;2023-08-21T02:15:44;7.50;;;4.38;;
58242;SDS011;50118;53.232;8.252;2023-08-21T02:18:09;8.20;;;5.38;;
58242;SDS011;50118;53.232;8.252;2023-08-21T02:20:35;10.10;;;5.28;;
58242;SDS011;50118;53.232;8.252;2023-08-21T02:23:00;8.52;;;5.22;;
58242;SDS011;50118;53.232;8.252;2023-08-21T02:25:25;7.10;;;4.85;;
58242;SDS011;50118;53.232;8.252;2023-08-21T02:27:51;7.93;;;5.00;;
58242;SDS011;50118;53.232;8.252;2023-08-21T02:30:16;8.85;;;4.72;;
58242;SDS011;50118;53.232;8.252;2023-08-21T02:32:42;9.55;;;5.05;;
58242;SDS011;50118;53.232;8.252;2023-08-21T02:35:07;6.97;;;4.85;;
58242;SDS011;50118;53.232;8.252;2023-08-21T02:37:33;6.32;;;4.60;;
58242;SDS011;50118;53.232;8.252;2023-08-21T02:39:59;9.88;;;5.30;;
58242;SDS011;50118;53.232;8.252;2023-08-21T02:42:25;8.05;;;5.43;;
58242;SDS011;50118;53.232;8.252;2023-08-21T02:44:50;8.07;;;5.00;;
58242;SDS011;50118;53.232;8.252;2023-08-21T02:47:16;10.38;;;5.35;;
58242;SDS011;50118;53.232;8.252;2023-08-21T02:49:41;8.30;;;5.20;;
58242;SDS011;50118;53.232;8.252;2023-08-21T02:52:10;7.78;;;5.30;;
58242;SDS011;50118;53.232;8.252;2023-08-21T02:54:35;9.18;;;5.40;;
58242;SDS011;50118;53.232;8.252;2023-08-21T02:57:00;9.50;;;5.60;;
58242;SDS011;50118;53.232;8.252;2023-08-21T02:59:26;10.65;;;5.65;;
58242;SDS011;50118;53.232;8.252;2023-08-21T03:01:51;8.60;;;4.90;;
58242;SDS011;50118;53.232;8.252;2023-08-21T03:04:17;5.93;;;4.50;;
58242;SDS011;50118;53.232;8.252;2023-08-21T03:06:42;5.50;;;4.57;;
58242;SDS011;50118;53.232;8.252;2023-08-21T03:09:08;6.15;;;4.18;;
58242;SDS011;50118;53.232;8.252;2023-08-21T03:11:33;6.25;;;4.32;;
58242;SDS011;50118;53.232;8.252;2023-08-21T03:13:59;7.13;;;4.35;;
58242;SDS011;50118;53.232;8.252;2023-08-21T03:16:24;11.55;;;5.05;;
58242;SDS011;50118;53.232;8.252;2023-08-21T03:18:57;8.13;;;4.82;;
58242;SDS011;50118;53.232;8.252;2023-08-21T03:21:23;8.55;;;4.80;;
58242;SDS011;50118;53.232;8.252;2023-08-21T03:23:53;7.00;;;4.43;;
58242;SDS011;50118;53.232;8.252;2023-08-21T03:26:20;8.30;;;5.60;;
58242;SDS011;50118;53.232;8.252;2023-08-21T03:28:45;8.65;;;5.72;;
58242;SDS011;50118;53.232;8.252;2023-08-21T03:31:11;9.75;;;5.72;;
58242;SDS011;50118;53.232;8.252;2023-08-21T03:33:36;8.70;;;5.70;;
58242;SDS011;50118;53.232;8.252;2023-08-21T03:36:02;7.05;;;5.75;;
58242;SDS011;50118;53.232;8.252;2023-08-21T03:38:28;8.05;;;6.05;;
58242;SDS011;50118;53.232;8.252;2023-08-21T03:40:53;9.85;;;5.32;;
58242;SDS011;50118;53.232;8.252;2023-08-21T03:43:19;9.80;;;5.72;;
58242;SDS011;50118;53.232;8.252;2023-08-21T03:45:44;7.18;;;4.78;;
58242;SDS011;50118;53.232;8.252;2023-08-21T03:48:10;6.93;;;5.05;;
58242;SDS011;50118;53.232;8.252;2023-08-21T03:50:35;8.43;;;5.70;;
58242;SDS011;50118;53.232;8.252;2023-08-21T03:53:01;9.90;;;5.60;;
58242;SDS011;50118;53.232;8.252;2023-08-21T03:55:26;8.15;;;5.50;;
58242;SDS011;50118;53.232;8.252;2023-08-21T03:57:51;8.68;;;5.70;;
58242;SDS011;50118;53.232;8.252;2023-08-21T04:00:17;8.68;;;5.25;;
58242;SDS011;50118;53.232;8.252;2023-08-21T04:02:42;8.15;;;5.72;;
58242;SDS011;50118;53.232;8.252;2023-08-21T04:05:08;7.75;;;5.20;;
58242;SDS011;50118;53.232;8.252;2023-08-21T04:07:35;6.72;;;4.90;;
58242;SDS011;50118;53.232;8.252;2023-08-21T04:10:01;7.38;;;5.25;;
58242;SDS011;50118;53.232;8.252;2023-08-21T04:12:26;6.75;;;4.90;;
58242;SDS011;50118;53.232;8.252;2023-08-21T04:14:52;6.85;;;5.20;;
58242;SDS011;50118;53.232;8.252;2023-08-21T04:17:23;8.18;;;5.43;;
58242;SDS011;50118;53.232;8.252;2023-08-21T04:19:49;8.10;;;4.93;;
58242;SDS011;50118;53.232;8.252;2023-08-21T04:22:15;10.25;;;5.93;;
58242;SDS011;50118;53.232;8.252;2023-08-21T04:24:41;8.65;;;6.07;;
58242;SDS011;50118;53.232;8.252;2023-08-21T04:27:07;9.88;;;5.68;;
58242;SDS011;50118;53.232;8.252;2023-08-21T04:29:32;7.95;;;5.78;;
58242;SDS011;50118;53.232;8.252;2023-08-21T04:31:58;8.25;;;4.97;;
58242;SDS011;50118;53.232;8.252;2023-08-21T04:34:23;7.75;;;5.63;;
58242;SDS011;50118;53.232;8.252;2023-08-21T04:36:48;7.85;;;5.38;;
58242;SDS011;50118;53.232;8.252;2023-08-21T04:39:14;9.63;;;6.35;;
58242;SDS011;50118;53.232;8.252;2023-08-21T04:41:40;8.30;;;6.00;;
58242;SDS011;50118;53.232;8.252;2023-08-21T04:44:06;9.93;;;5.53;;
58242;SDS011;50118;53.232;8.252;2023-08-21T04:46:32;8.30;;;5.45;;
58242;SDS011;50118;53.232;8.252;2023-08-21T04:48:57;8.80;;;5.55;;
58242;SDS011;50118;53.232;8.252;2023-08-21T04:51:23;9.05;;;5.45;;
58242;SDS011;50118;53.232;8.252;2023-08-21T04:53:48;9.02;;;5.78;;
58242;SDS011;50118;53.232;8.252;2023-08-21T04:56:14;9.45;;;5.43;;
58242;SDS011;50118;53.232;8.252;2023-08-21T04:58:39;6.82;;;5.20;;
58242;SDS011;50118;53.232;8.252;2023-08-21T05:01:04;9.05;;;5.18;;
58242;SDS011;50118;53.232;8.252;2023-08-21T05:03:30;9.70;;;5.18;;
58242;SDS011;50118;53.232;8.252;2023-08-21T05:05:55;7.45;;;5.28;;
58242;SDS011;50118;53.232;8.252;2023-08-21T05:08:22;6.90;;;4.72;;
58242;SDS011;50118;53.232;8.252;2023-08-21T05:10:53;6.43;;;4.10;;
58242;SDS011;50118;53.232;8.252;2023-08-21T05:13:25;6.78;;;5.30;;
58242;SDS011;50118;53.232;8.252;2023-08-21T05:15:51;6.97;;;4.70;;
58242;SDS011;50118;53.232;8.252;2023-08-21T05:18:18;7.32;;;4.88;;
58242;SDS011;50118;53.232;8.252;2023-08-21T05:20:44;7.72;;;4.70;;
58242;SDS011;50118;53.232;8.252;2023-08-21T05:23:09;7.50;;;5.03;;
58242;SDS011;50118;53.232;8.252;2023-08-21T05:25:34;6.22;;;4.03;;
58242;SDS011;50118;53.232;8.252;2023-08-21T05:28:00;6.25;;;4.10;;
58242;SDS011;50118;53.232;8.252;2023-08-21T05:30:26;6.32;;;3.35;;
58242;SDS011;50118;53.232;8.252;2023-08-21T05:32:51;4.53;;;2.92;;
58242;SDS011;50118;53.232;8.252;2023-08-21T05:35:17;5.55;;;3.20;;
58242;SDS011;50118;53.232;8.252;2023-08-21T05:37:42;4.65;;;2.97;;
58242;SDS011;50118;53.232;8.252;2023-08-21T05:40:07;4.82;;;3.50;;
58242;SDS011;50118;53.232;8.252;2023-08-21T05:42:33;6.03;;;3.67;;
58242;SDS011;50118;53.232;8.252;2023-08-21T05:44:59;5.65;;;3.20;;
58242;SDS011;50118;53.232;8.252;2023-08-21T05:47:24;6.40;;;3.45;;
58242;SDS011;50118;53.232;8.252;2023-08-21T05:49:55;5.17;;;3.37;;
58242;SDS011;50118;53.232;8.252;2023-08-21T05:52:21;5.82;;;3.83;;
58242;SDS011;50118;53.232;8.252;2023-08-21T05:54:47;5.45;;;3.25;;
58242;SDS011;50118;53.232;8.252;2023-08-21T05:57:13;5.30;;;3.60;;
58242;SDS011;50118;53.232;8.252;2023-08-21T05:59:42;7.97;;;4.50;;
58242;SDS011;50118;53.232;8.252;2023-08-21T06:02:10;6.35;;;4.05;;
58242;SDS011;50118;53.232;8.252;2023-08-21T06:04:36;9.45;;;4.75;;
58242;SDS011;50118;53.232;8.252;2023-08-21T06:07:06;7.40;;;5.05;;
58242;SDS011;50118;53.232;8.252;2023-08-21T06:09:41;7.68;;;4.30;;
58242;SDS011;50118;53.232;8.252;2023-08-21T06:12:07;6.85;;;4.20;;
58242;SDS011;50118;53.232;8.252;2023-08-21T06:14:32;8.32;;;4.57;;
58242;SDS011;50118;53.232;8.252;2023-08-21T06:17:10;6.35;;;4.05;;
58242;SDS011;50118;53.232;8.252;2023-08-21T06:19:41;6.13;;;4.20;;
58242;SDS011;50118;53.232;8.252;2023-08-21T06:22:07;6.47;;;4.10;;
58242;SDS011;50118;53.232;8.252;2023-08-21T06:24:32;6.85;;;4.28;;
58242;SDS011;50118;53.232;8.252;2023-08-21T06:26:58;7.45;;;3.70;;
58242;SDS011;50118;53.232;8.252;2023-08-21T06:29:23;6.50;;;4.30;;
58242;SDS011;50118;53.232;8.252;2023-08-21T06:31:49;8.07;;;4.10;;
58242;SDS011;50118;53.232;8.252;2023-08-21T06:34:15;7.13;;;3.40;;
58242;SDS011;50118;53.232;8.252;2023-08-21T06:36:41;6.55;;;3.00;;
58242;SDS011;50118;53.232;8.252;2023-08-21T06:39:06;7.85;;;3.92;;
58242;SDS011;50118;53.232;8.252;2023-08-21T06:41:31;8.18;;;3.55;;
58242;SDS011;50118;53.232;8.252;2023-08-21T06:43:57;7.03;;;3.10;;
58242;SDS011;50118;53.232;8.252;2023-08-21T06:46:22;7.43;;;3.00;;
58242;SDS011;50118;53.232;8.252;2023-08-21T06:48:48;5.15;;;2.30;;
58242;SDS011;50118;53.232;8.252;2023-08-21T06:51:17;7.45;;;2.70;;
58242;SDS011;50118;53.232;8.252;2023-08-21T06:53:52;6.10;;;2.50;;
58242;SDS011;50118;53.232;8.252;2023-08-21T06:56:17;6.07;;;2.92;;
58242;SDS011;50118;53.232;8.252;2023-08-21T06:58:43;6.45;;;2.60;;
58242;SDS011;50118;53.232;8.252;2023-08-21T07:01:08;7.15;;;2.33;;
58242;SDS011;50118;53.232;8.252;2023-08-21T07:03:33;7.78;;;2.60;;
58242;SDS011;50118;53.232;8.252;2023-08-21T07:05:59;5.43;;;2.00;;
58242;SDS011;50118;53.232;8.252;2023-08-21T07:08:33;7.00;;;2.50;;
58242;SDS011;50118;53.232;8.252;2023-08-21T07:11:01;5.95;;;2.15;;
58242;SDS011;50118;53.232;8.252;2023-08-21T07:13:29;6.07;;;2.35;;
58242;SDS011;50118;53.232;8.252;2023-08-21T07:15:54;6.07;;;2.05;;
58242;SDS011;50118;53.232;8.252;2023-08-21T07:18:20;4.82;;;1.77;;
58242;SDS011;50118;53.232;8.252;2023-08-21T07:20:46;4.75;;;1.60;;
58242;SDS011;50118;53.232;8.252;2023-08-21T07:23:11;3.25;;;1.20;;
58242;SDS011;50118;53.232;8.252;2023-08-21T07:25:36;4.95;;;1.55;;
58242;SDS011;50118;53.232;8.252;2023-08-21T07:28:02;4.60;;;1.48;;
58242;SDS011;50118;53.232;8.252;2023-08-21T07:30:27;6.30;;;1.50;;
58242;SDS011;50118;53.232;8.252;2023-08-21T07:32:53;4.20;;;1.20;;
58242;SDS011;50118;53.232;8.252;2023-08-21T07:35:19;5.45;;;1.25;;
58242;SDS011;50118;53.232;8.252;2023-08-21T07:37:45;5.47;;;1.40;;
58242;SDS011;50118;53.232;8.252;2023-08-21T07:40:11;4.65;;;1.40;;
58242;SDS011;50118;53.232;8.252;2023-08-21T07:42:37;4.32;;;1.30;;
58242;SDS011;50118;53.232;8.252;2023-08-21T07:45:03;3.35;;;1.10;;
58242;SDS011;50118;53.232;8.252;2023-08-21T07:47:28;4.90;;;1.27;;
58242;SDS011;50118;53.232;8.252;2023-08-21T07:49:54;5.30;;;1.70;;
58242;SDS011;50118;53.232;8.252;2023-08-21T07:52:21;3.22;;;1.20;;
58242;SDS011;50118;53.232;8.252;2023-08-21T07:54:47;5.40;;;1.33;;
58242;SDS011;50118;53.232;8.252;2023-08-21T07:57:16;3.60;;;1.30;;
58242;SDS011;50118;53.232;8.252;2023-08-21T07:59:42;12.02;;;1.70;;
58242;SDS011;50118;53.232;8.252;2023-08-21T08:02:08;3.50;;;1.20;;
58242;SDS011;50118;53.232;8.252;2023-08-21T08:04:33;4.38;;;1.20;;
58242;SDS011;50118;53.232;8.252;2023-08-21T08:06:59;3.03;;;1.20;;
58242;SDS011;50118;53.232;8.252;2023-08-21T08:09:24;4.85;;;1.60;;
58242;SDS011;50118;53.232;8.252;2023-08-21T08:11:50;4.45;;;1.50;;
58242;SDS011;50118;53.232;8.252;2023-08-21T08:14:15;4.20;;;1.30;;
58242;SDS011;50118;53.232;8.252;2023-08-21T08:16:40;4.65;;;1.45;;
58242;SDS011;50118;53.232;8.252;2023-08-21T08:19:06;3.72;;;1.40;;
58242;SDS011;50118;53.232;8.252;2023-08-21T08:21:32;5.03;;;1.30;;
58242;SDS011;50118;53.232;8.252;2023-08-21T08:23:58;4.75;;;1.30;;
58242;SDS011;50118;53.232;8.252;2023-08-21T08:26:23;4.13;;;1.60;;
58242;SDS011;50118;53.232;8.252;2023-08-21T08:28:48;2.95;;;1.40;;
58242;SDS011;50118;53.232;8.252;2023-08-21T08:31:15;2.97;;;1.20;;
58242;SDS011;50118;53.232;8.252;2023-08-21T08:33:41;4.38;;;1.30;;
58242;SDS011;50118;53.232;8.252;2023-08-21T08:36:06;3.17;;;1.40;;
58242;SDS011;50118;53.232;8.252;2023-08-21T08:38:32;4.15;;;1.40;;
58242;SDS011;50118;53.232;8.252;2023-08-21T08:40:57;4.35;;;1.40;;
58242;SDS011;50118;53.232;8.252;2023-08-21T08:43:24;6.82;;;1.42;;
58242;SDS011;50118;53.232;8.252;2023-08-21T08:45:52;3.05;;;1.20;;
58242;SDS011;50118;53.232;8.252;2023-08-21T08:48:21;4.03;;;1.30;;
58242;SDS011;50118;53.232;8.252;2023-08-21T08:50:47;2.45;;;1.23;;
58242;SDS011;50118;53.232;8.252;2023-08-21T08:53:13;3.25;;;1.08;;
58242;SDS011;50118;53.232;8.252;2023-08-21T08:55:39;3.15;;;1.20;;
58242;SDS011;50118;53.232;8.252;2023-08-21T08:58:04;7.03;;;1.50;;
58242;SDS011;50118;53.232;8.252;2023-08-21T09:00:30;3.60;;;1.17;;
58242;SDS011;50118;53.232;8.252;2023-08-21T09:02:56;4.38;;;1.50;;
58242;SDS011;50118;53.232;8.252;2023-08-21T09:05:22;3.25;;;1.17;;
58242;SDS011;50118;53.232;8.252;2023-08-21T09:08:01;4.15;;;1.20;;
58242;SDS011;50118;53.232;8.252;2023-08-21T09:10:38;3.92;;;1.30;;
58242;SDS011;50118;53.232;8.252;2023-08-21T09:13:14;3.50;;;1.25;;
58242;SDS011;50118;53.232;8.252;2023-08-21T09:15:47;2.50;;;1.20;;
58242;SDS011;50118;53.232;8.252;2023-08-21T09:18:18;4.10;;;1.20;;
58242;SDS011;50118;53.232;8.252;2023-08-21T09:20:43;3.00;;;1.00;;
58242;SDS011;50118;53.232;8.252;2023-08-21T09:23:12;4.13;;;1.27;;
58242;SDS011;50118;53.232;8.252;2023-08-21T09:25:43;2.67;;;1.10;;
58242;SDS011;50118;53.232;8.252;2023-08-21T09:28:11;3.78;;;1.30;;
58242;SDS011;50118;53.232;8.252;2023-08-21T09:33:35;2.17;;;1.08;;
58242;SDS011;50118;53.232;8.252;2023-08-21T09:36:00;4.28;;;1.20;;
58242;SDS011;50118;53.232;8.252;2023-08-21T09:38:28;3.67;;;1.25;;
58242;SDS011;50118;53.232;8.252;2023-08-21T09:40:54;4.00;;;1.40;;
58242;SDS011;50118;53.232;8.252;2023-08-21T09:43:21;4.65;;;1.25;;
58242;SDS011;50118;53.232;8.252;2023-08-21T09:45:48;3.42;;;1.25;;
58242;SDS011;50118;53.232;8.252;2023-08-21T09:48:23;2.42;;;0.90;;
58242;SDS011;50118;53.232;8.252;2023-08-21T09:50:53;3.85;;;1.20;;
58242;SDS011;50118;53.232;8.252;2023-08-21T09:53:22;3.15;;;1.25;;
58242;SDS011;50118;53.232;8.252;2023-08-21T09:55:54;4.07;;;1.38;;
58242;SDS011;50118;53.232;8.252;2023-08-21T09:58:20;3.60;;;1.23;;
58242;SDS011;50118;53.232;8.252;2023-08-21T10:00:47;2.70;;;1.20;;
58242;SDS011;50118;53.232;8.252;2023-08-21T10:03:15;3.17;;;1.23;;
58242;SDS011;50118;53.232;8.252;2023-08-21T10:05:44;3.10;;;1.10;;
58242;SDS011;50118;53.232;8.252;2023-08-21T10:08:12;2.97;;;1.20;;
58242;SDS011;50118;53.232;8.252;2023-08-21T10:10:41;2.80;;;1.20;;
58242;SDS011;50118;53.232;8.252;2023-08-21T10:13:07;2.58;;;1.40;;
58242;SDS011;50118;53.232;8.252;2023-08-21T10:15:33;3.47;;;1.40;;
58242;SDS011;50118;53.232;8.252;2023-08-21T10:20:46;3.35;;;1.17;;
58242;SDS011;50118;53.232;8.252;2023-08-21T10:23:23;2.33;;;0.93;;
58242;SDS011;50118;53.232;8.252;2023-08-21T10:26:00;2.80;;;1.10;;
58242;SDS011;50118;53.232;8.252;2023-08-21T10:33:55;2.13;;;1.00;;
58242;SDS011;50118;53.232;8.252;2023-08-21T10:39:15;4.00;;;1.00;;
58242;SDS011;50118;53.232;8.252;2023-08-21T10:42:33;3.35;;;1.13;;
58242;SDS011;50118;53.232;8.252;2023-08-21T10:49:57;3.58;;;1.10;;
58242;SDS011;50118;53.232;8.252;2023-08-21T10:52:28;3.20;;;1.20;;
58242;SDS011;50118;53.232;8.252;2023-08-21T10:55:01;3.42;;;1.20;;
58242;SDS011;50118;53.232;8.252;2023-08-21T10:57:29;2.67;;;1.30;;
58242;SDS011;50118;53.232;8.252;2023-08-21T11:02:26;3.08;;;1.20;;
58242;SDS011;50118;53.232;8.252;2023-08-21T11:04:54;2.63;;;1.20;;
58242;SDS011;50118;53.232;8.252;2023-08-21T11:07:19;2.47;;;1.20;;
58242;SDS011;50118;53.232;8.252;2023-08-21T11:09:46;4.10;;;1.20;;
58242;SDS011;50118;53.232;8.252;2023-08-21T11:12:13;2.88;;;1.27;;
58242;SDS011;50118;53.232;8.252;2023-08-21T11:14:49;3.78;;;1.00;;
58242;SDS011;50118;53.232;8.252;2023-08-21T11:17:15;3.58;;;1.20;;
58242;SDS011;50118;53.232;8.252;2023-08-21T11:19:41;4.40;;;1.20;;
58242;SDS011;50118;53.232;8.252;2023-08-21T11:22:07;3.35;;;1.02;;
58242;SDS011;50118;53.232;8.252;2023-08-21T11:27:01;3.17;;;1.15;;
58242;SDS011;50118;53.232;8.252;2023-08-21T11:29:28;2.67;;;1.25;;
58242;SDS011;50118;53.232;8.252;2023-08-21T11:31:54;2.00;;;0.93;;
58242;SDS011;50118;53.232;8.252;2023-08-21T11:34:19;2.40;;;1.02;;
58242;SDS011;50118;53.232;8.252;2023-08-21T11:36:46;2.30;;;1.20;;
58242;SDS011;50118;53.232;8.252;2023-08-21T11:39:12;3.50;;;1.10;;
58242;SDS011;50118;53.232;8.252;2023-08-21T11:41:56;3.08;;;1.10;;
58242;SDS011;50118;53.232;8.252;2023-08-21T11:44:21;3.78;;;1.20;;
58242;SDS011;50118;53.232;8.252;2023-08-21T11:46:47;3.28;;;1.40;;
58242;SDS011;50118;53.232;8.252;2023-08-21T11:49:12;2.80;;;1.10;;
58242;SDS011;50118;53.232;8.252;2023-08-21T11:51:38;2.80;;;1.20;;
58242;SDS011;50118;53.232;8.252;2023-08-21T11:54:04;2.40;;;1.35;;
58242;SDS011;50118;53.232;8.252;2023-08-21T11:56:31;3.22;;;1.25;;
58242;SDS011;50118;53.232;8.252;2023-08-21T11:58:56;2.55;;;1.20;;
58242;SDS011;50118;53.232;8.252;2023-08-21T12:01:24;3.45;;;1.38;;
58242;SDS011;50118;53.232;8.252;2023-08-21T12:03:49;2.92;;;1.20;;
58242;SDS011;50118;53.232;8.252;2023-08-21T12:06:20;3.05;;;1.20;;
58242;SDS011;50118;53.232;8.252;2023-08-21T12:08:46;3.67;;;1.15;;
58242;SDS011;50118;53.232;8.252;2023-08-21T12:11:12;2.00;;;1.10;;
58242;SDS011;50118;53.232;8.252;2023-08-21T12:13:37;2.88;;;1.00;;
58242;SDS011;50118;53.232;8.252;2023-08-21T12:16:03;4.03;;;1.20;;
58242;SDS011;50118;53.232;8.252;2023-08-21T12:18:29;3.58;;;1.48;;
58242;SDS011;50118;53.232;8.252;2023-08-21T12:20:54;3.20;;;1.35;;
58242;SDS011;50118;53.232;8.252;2023-08-21T12:23:20;4.20;;;1.20;;
58242;SDS011;50118;53.232;8.252;2023-08-21T12:25:45;2.75;;;1.40;;
58242;SDS011;50118;53.232;8.252;2023-08-21T12:28:11;2.75;;;1.20;;
58242;SDS011;50118;53.232;8.252;2023-08-21T12:30:37;4.88;;;1.40;;
58242;SDS011;50118;53.232;8.252;2023-08-21T12:33:02;2.92;;;1.10;;
58242;SDS011;50118;53.232;8.252;2023-08-21T12:35:28;3.08;;;1.40;;
58242;SDS011;50118;53.232;8.252;2023-08-21T12:37:55;3.30;;;1.25;;
58242;SDS011;50118;53.232;8.252;2023-08-21T12:40:22;2.92;;;1.30;;
58242;SDS011;50118;53.232;8.252;2023-08-21T12:42:47;5.40;;;1.52;;
58242;SDS011;50118;53.232;8.252;2023-08-21T12:45:13;2.83;;;1.23;;
58242;SDS011;50118;53.232;8.252;2023-08-21T12:47:38;2.72;;;1.40;;
58242;SDS011;50118;53.232;8.252;2023-08-21T12:50:04;2.97;;;1.23;;
58242;SDS011;50118;53.232;8.252;2023-08-21T12:52:30;3.15;;;1.35;;
58242;SDS011;50118;53.232;8.252;2023-08-21T12:54:56;2.72;;;1.20;;
58242;SDS011;50118;53.232;8.252;2023-08-21T12:57:21;4.28;;;1.30;;
58242;SDS011;50118;53.232;8.252;2023-08-21T12:59:47;2.67;;;1.27;;
58242;SDS011;50118;53.232;8.252;2023-08-21T13:02:12;2.85;;;1.40;;
58242;SDS011;50118;53.232;8.252;2023-08-21T13:04:37;2.17;;;1.23;;
58242;SDS011;50118;53.232;8.252;2023-08-21T13:07:03;3.45;;;1.50;;
58242;SDS011;50118;53.232;8.252;2023-08-21T13:09:29;3.60;;;1.20;;
58242;SDS011;50118;53.232;8.252;2023-08-21T13:11:55;4.15;;;1.50;;
58242;SDS011;50118;53.232;8.252;2023-08-21T13:14:20;2.30;;;1.05;;
58242;SDS011;50118;53.232;8.252;2023-08-21T13:16:45;3.17;;;1.40;;
58242;SDS011;50118;53.232;8.252;2023-08-21T13:19:11;2.05;;;1.30;;
58242;SDS011;50118;53.232;8.252;2023-08-21T13:21:36;2.58;;;1.20;;
58242;SDS011;50118;53.232;8.252;2023-08-21T13:24:02;3.28;;;1.20;;
58242;SDS011;50118;53.232;8.252;2023-08-21T13:26:28;2.70;;;1.23;;
58242;SDS011;50118;53.232;8.252;2023-08-21T13:28:54;3.38;;;1.40;;
58242;SDS011;50118;53.232;8.252;2023-08-21T13:31:20;5.82;;;1.40;;
58242;SDS011;50118;53.232;8.252;2023-08-21T13:33:46;3.17;;;1.27;;
58242;SDS011;50118;53.232;8.252;2023-08-21T13:36:12;3.13;;;1.30;;
58242;SDS011;50118;53.232;8.252;2023-08-21T13:38:39;2.90;;;1.10;;
58242;SDS011;50118;53.232;8.252;2023-08-21T13:41:04;4.75;;;1.30;;
58242;SDS011;50118;53.232;8.252;2023-08-21T13:43:30;2.50;;;1.23;;
58242;SDS011;50118;53.232;8.252;2023-08-21T13:45:55;3.45;;;1.30;;
58242;SDS011;50118;53.232;8.252;2023-08-21T13:48:21;2.00;;;1.13;;
58242;SDS011;50118;53.232;8.252;2023-08-21T13:50:46;2.10;;;1.20;;
58242;SDS011;50118;53.232;8.252;2023-08-21T13:53:11;2.50;;;1.25;;
58242;SDS011;50118;53.232;8.252;2023-08-21T13:55:37;2.33;;;1.30;;
58242;SDS011;50118;53.232;8.252;2023-08-21T13:58:03;1.92;;;1.08;;
58242;SDS011;50118;53.232;8.252;2023-08-21T14:00:28;4.07;;;1.25;;
58242;SDS011;50118;53.232;8.252;2023-08-21T14:02:54;3.13;;;1.20;;
58242;SDS011;50118;53.232;8.252;2023-08-21T14:05:19;3.03;;;1.20;;
58242;SDS011;50118;53.232;8.252;2023-08-21T14:07:45;2.35;;;1.23;;
58242;SDS011;50118;53.232;8.252;2023-08-21T14:10:10;2.78;;;1.20;;
58242;SDS011;50118;53.232;8.252;2023-08-21T14:12:38;3.72;;;1.20;;
58242;SDS011;50118;53.232;8.252;2023-08-21T14:15:04;2.63;;;1.10;;
58242;SDS011;50118;53.232;8.252;2023-08-21T14:17:30;2.25;;;1.13;;
58242;SDS011;50118;53.232;8.252;2023-08-21T14:19:56;3.35;;;1.17;;
58242;SDS011;50118;53.232;8.252;2023-08-21T14:22:21;3.40;;;1.23;;
58242;SDS011;50118;53.232;8.252;2023-08-21T14:24:47;1.75;;;1.00;;
58242;SDS011;50118;53.232;8.252;2023-08-21T14:27:12;4.30;;;1.33;;
58242;SDS011;50118;53.232;8.252;2023-08-21T14:29:38;2.65;;;1.17;;
58242;SDS011;50118;53.232;8.252;2023-08-21T14:32:03;2.58;;;1.20;;
58242;SDS011;50118;53.232;8.252;2023-08-21T14:34:29;3.65;;;1.30;;
58242;SDS011;50118;53.232;8.252;2023-08-21T14:36:55;3.55;;;1.15;;
58242;SDS011;50118;53.232;8.252;2023-08-21T14:39:22;2.83;;;1.02;;
58242;SDS011;50118;53.232;8.252;2023-08-21T14:41:53;2.85;;;1.13;;
58242;SDS011;50118;53.232;8.252;2023-08-21T14:46:45;6.25;;;1.20;;
58242;SDS011;50118;53.232;8.252;2023-08-21T14:49:10;2.28;;;1.00;;
58242;SDS011;50118;53.232;8.252;2023-08-21T14:51:36;6.18;;;2.83;;
58242;SDS011;50118;53.232;8.252;2023-08-21T14:54:02;3.03;;;1.13;;
58242;SDS011;50118;53.232;8.252;2023-08-21T14:56:27;2.80;;;1.30;;
58242;SDS011;50118;53.232;8.252;2023-08-21T14:58:53;3.30;;;1.35;;
58242;SDS011;50118;53.232;8.252;2023-08-21T15:01:18;1.98;;;1.10;;
58242;SDS011;50118;53.232;8.252;2023-08-21T15:03:44;2.58;;;1.05;;
58242;SDS011;50118;53.232;8.252;2023-08-21T15:06:09;1.85;;;1.00;;
58242;SDS011;50118;53.232;8.252;2023-08-21T15:08:34;3.03;;;1.05;;
58242;SDS011;50118;53.232;8.252;2023-08-21T15:11:03;3.33;;;1.20;;
58242;SDS011;50118;53.232;8.252;2023-08-21T15:13:28;1.23;;;0.98;;
58242;SDS011;50118;53.232;8.252;2023-08-21T15:15:53;3.40;;;1.13;;